createdAt,value
2019-02-25T00:01:47.076Z,12.70
2019-02-25T00:04:17.908Z,11.23
2019-02-25T00:06:47.519Z,13.00
2019-02-25T00:09:22.108Z,13.27
2019-02-25T00:11:55.668Z,13.63
2019-02-25T00:14:25.264Z,12.43
2019-02-25T00:16:55.077Z,13.00
2019-02-25T00:19:26.630Z,11.97
2019-02-25T00:21:56.582Z,12.70
2019-02-25T00:24:28.285Z,13.67
2019-02-25T00:26:58.134Z,14.77
2019-02-25T00:29:30.126Z,14.23
2019-02-25T00:32:01.447Z,13.17
2019-02-25T00:34:31.100Z,12.83
2019-02-25T00:37:00.926Z,12.17
2019-02-25T00:39:34.613Z,11.87
2019-02-25T00:42:04.374Z,11.67
2019-02-25T00:44:35.516Z,11.53
2019-02-25T00:47:07.523Z,10.77
2019-02-25T00:49:37.111Z,11.03
2019-02-25T00:52:09.932Z,9.97
2019-02-25T00:54:39.489Z,8.00
2019-02-25T00:57:09.163Z,9.27
2019-02-25T00:59:38.820Z,10.00
2019-02-25T01:02:08.295Z,9.83
2019-02-25T01:04:38.091Z,10.73
2019-02-25T01:07:07.913Z,10.37
2019-02-25T01:09:38.942Z,10.20
2019-02-25T01:12:09.571Z,10.13
2019-02-25T01:14:39.286Z,9.30
2019-02-25T01:17:09.002Z,7.70
2019-02-25T01:19:44.378Z,8.87
2019-02-25T01:22:14.107Z,9.03
2019-02-25T01:24:45.153Z,8.37
2019-02-25T01:27:15.823Z,9.50
2019-02-25T01:29:46.900Z,9.57
2019-02-25T01:32:16.607Z,9.47
2019-02-25T01:34:48.069Z,9.67
2019-02-25T01:37:19.795Z,10.23
2019-02-25T01:39:49.494Z,9.80
2019-02-25T01:42:21.238Z,11.13
2019-02-25T01:44:52.122Z,10.20
2019-02-25T01:47:21.728Z,11.10
2019-02-25T01:49:55.210Z,11.60
2019-02-25T01:52:26.126Z,10.70
2019-02-25T01:54:58.510Z,13.03
2019-02-25T01:57:28.142Z,10.80
2019-02-25T02:00:01.066Z,11.87
2019-02-25T02:02:30.846Z,12.50
2019-02-25T02:05:00.436Z,13.03
2019-02-25T02:07:31.165Z,13.50
2019-02-25T02:10:05.258Z,12.57
2019-02-25T02:12:32.605Z,15.67
2019-02-25T02:15:03.954Z,15.60
2019-02-25T02:17:35.638Z,13.13
2019-02-25T02:20:05.858Z,12.43
2019-02-25T02:22:39.829Z,12.77
2019-02-25T02:25:14.782Z,13.43
2019-02-25T02:27:46.352Z,15.07
2019-02-25T02:30:17.861Z,12.80
2019-02-25T02:32:47.591Z,15.40
2019-02-25T02:35:21.837Z,14.33
2019-02-25T02:37:54.563Z,14.03
2019-02-25T02:40:27.020Z,13.67
2019-02-25T02:42:57.792Z,11.43
2019-02-25T02:45:42.203Z,11.53
2019-02-25T02:48:17.662Z,9.63
2019-02-25T02:50:49.384Z,13.33
2019-02-25T02:53:26.006Z,9.70
2019-02-25T02:55:55.707Z,12.90
2019-02-25T02:58:25.388Z,14.33
2019-02-25T03:00:59.438Z,12.20
2019-02-25T03:03:29.176Z,13.27
2019-02-25T03:06:08.589Z,13.60
2019-02-25T03:08:38.203Z,12.77
2019-02-25T03:11:07.969Z,12.27
2019-02-25T03:13:37.702Z,12.70
2019-02-25T03:16:11.191Z,12.67
2019-02-25T03:18:44.112Z,12.80
2019-02-25T03:21:14.871Z,12.80
2019-02-25T03:23:44.659Z,13.37
2019-02-25T03:26:14.423Z,14.33
2019-02-25T03:28:48.789Z,13.67
2019-02-25T03:31:18.536Z,14.73
2019-02-25T03:33:48.211Z,12.97
2019-02-25T03:36:20.653Z,14.80
2019-02-25T03:38:50.281Z,11.37
2019-02-25T03:41:21.221Z,11.70
2019-02-25T03:43:55.957Z,12.97
2019-02-25T03:46:27.048Z,10.70
2019-02-25T03:48:56.663Z,10.53
2019-02-25T03:51:28.455Z,9.63
2019-02-25T03:54:00.043Z,8.47
2019-02-25T03:56:29.683Z,8.73
2019-02-25T03:59:03.674Z,8.93
2019-02-25T04:01:35.929Z,6.50
2019-02-25T04:04:05.712Z,7.83
2019-02-25T04:06:36.872Z,7.27
2019-02-25T04:09:11.086Z,6.43
2019-02-25T04:11:43.732Z,6.73
2019-02-25T04:14:13.472Z,7.27
2019-02-25T04:16:43.148Z,7.27
2019-02-25T04:19:12.833Z,7.23
2019-02-25T04:21:47.395Z,7.47
2019-02-25T04:24:18.479Z,6.33
2019-02-25T04:26:48.054Z,7.53
2019-02-25T04:29:19.502Z,7.70
2019-02-25T04:33:42.498Z,8.43
2019-02-25T04:36:11.999Z,7.27
2019-02-25T04:38:42.843Z,9.43
2019-02-25T04:41:17.913Z,8.70
2019-02-25T04:43:47.152Z,10.07
2019-02-25T04:46:20.123Z,9.97
2019-02-25T04:48:53.718Z,9.30
2019-02-25T04:51:28.754Z,9.20
2019-02-25T04:54:04.212Z,9.40
2019-02-25T04:56:34.002Z,10.33
2019-02-25T04:59:06.519Z,9.47
2019-02-25T05:01:36.145Z,9.00
2019-02-25T05:04:07.123Z,10.50
2019-02-25T05:06:36.766Z,11.83
2019-02-25T05:09:09.563Z,11.73
2019-02-25T05:11:39.221Z,10.83
2019-02-25T05:14:11.694Z,9.47
2019-02-25T05:16:43.854Z,7.50
2019-02-25T05:19:16.454Z,8.57
2019-02-25T05:21:46.141Z,8.30
2019-02-25T05:24:15.907Z,8.13
2019-02-25T05:26:45.465Z,9.67
2019-02-25T05:29:16.336Z,8.60
2019-02-25T05:31:47.919Z,8.87
2019-02-25T05:34:17.282Z,10.50
2019-02-25T05:36:51.541Z,12.00
2019-02-25T05:39:28.509Z,13.07
2019-02-25T05:41:58.108Z,11.67
2019-02-25T05:44:27.622Z,10.87
2019-02-25T05:47:18.681Z,11.10
2019-02-25T05:49:51.812Z,9.37
2019-02-25T05:52:23.273Z,10.60
2019-02-25T05:54:53.164Z,11.23
2019-02-25T05:57:24.413Z,15.00
2019-02-25T06:00:03.656Z,18.97
2019-02-25T06:02:34.397Z,17.13
2019-02-25T06:05:07.651Z,15.57
2019-02-25T06:07:38.580Z,12.87
2019-02-25T06:10:12.658Z,11.97
2019-02-25T06:12:47.816Z,12.97
2019-02-25T06:15:17.850Z,13.50
2019-02-25T06:17:48.485Z,13.83
2019-02-25T06:20:19.476Z,13.20
2019-02-25T06:22:49.067Z,13.97
2019-02-25T06:25:18.737Z,12.73
2019-02-25T06:27:48.306Z,13.13
2019-02-25T06:30:19.548Z,14.13
2019-02-25T06:32:53.653Z,14.00
2019-02-25T06:35:25.396Z,15.03
2019-02-25T06:37:58.062Z,16.47
2019-02-25T06:40:27.901Z,17.63
2019-02-25T06:42:57.702Z,16.87
2019-02-25T06:45:27.546Z,16.47
2019-02-25T06:47:59.544Z,16.80
2019-02-25T06:50:29.272Z,16.80
2019-02-25T06:52:58.939Z,17.13
2019-02-25T06:55:28.679Z,16.00
2019-02-25T06:57:58.251Z,16.00
2019-02-25T07:00:28.020Z,16.93
2019-02-25T07:02:58.820Z,16.87
2019-02-25T07:05:54.685Z,17.63
2019-02-25T07:08:43.295Z,15.73
2019-02-25T07:11:37.931Z,16.23
2019-02-25T07:14:31.055Z,15.60
2019-02-25T07:17:22.752Z,14.63
2019-02-25T07:20:03.180Z,20.50
2019-02-25T07:23:01.014Z,23.13
2019-02-25T07:25:40.325Z,18.03
2019-02-25T07:28:20.642Z,15.87
2019-02-25T07:31:11.303Z,14.80
2019-02-25T07:34:01.802Z,14.87
2019-02-25T07:37:09.909Z,14.93
2019-02-25T07:40:17.426Z,13.63
2019-02-25T07:43:12.237Z,15.37
2019-02-25T07:46:05.150Z,16.37
2019-02-25T07:48:57.836Z,14.40
2019-02-25T07:51:51.308Z,14.17
2019-02-25T07:54:43.735Z,15.67
2019-02-25T07:57:23.802Z,13.53
2019-02-25T08:00:07.951Z,13.63
2019-02-25T08:03:00.194Z,14.17
2019-02-25T08:05:59.934Z,14.43
2019-02-25T08:08:48.094Z,14.07
2019-02-25T08:11:27.689Z,19.87
2019-02-25T08:14:05.990Z,24.23
2019-02-25T08:16:50.557Z,14.23
2019-02-25T08:19:39.862Z,13.27
2019-02-25T08:22:26.745Z,11.80
2019-02-25T08:25:17.828Z,10.57
2019-02-25T08:28:05.703Z,10.30
2019-02-25T08:31:01.283Z,10.03
2019-02-25T08:34:18.155Z,10.80
2019-02-25T08:37:47.570Z,8.70
2019-02-25T08:41:08.381Z,7.90
2019-02-25T08:44:15.004Z,7.57
2019-02-25T08:47:06.754Z,7.60
2019-02-25T08:49:49.280Z,7.97
2019-02-25T08:52:20.112Z,8.40
2019-02-25T08:54:54.456Z,8.13
2019-02-25T08:57:24.486Z,7.87
2019-02-25T08:59:57.242Z,7.50
2019-02-25T09:02:30.302Z,7.67
2019-02-25T09:05:00.925Z,7.17
2019-02-25T09:07:33.548Z,6.70
2019-02-25T09:10:07.079Z,7.17
2019-02-25T09:12:36.627Z,7.00
2019-02-25T09:15:07.892Z,7.03
2019-02-25T09:17:45.673Z,7.50
2019-02-25T09:20:18.988Z,7.23
2019-02-25T09:22:51.299Z,7.13
2019-02-25T09:25:21.712Z,6.63
2019-02-25T09:27:51.680Z,6.27
2019-02-25T09:30:21.843Z,6.63
2019-02-25T09:32:52.174Z,10.33
2019-02-25T09:35:22.011Z,7.53
2019-02-25T09:37:54.433Z,6.70
2019-02-25T09:40:24.974Z,6.43
2019-02-25T09:42:55.893Z,5.97
2019-02-25T09:45:28.219Z,6.07
2019-02-25T09:47:59.777Z,5.57
2019-02-25T09:50:31.859Z,4.50
2019-02-25T09:53:03.852Z,4.20
2019-02-25T09:55:38.671Z,4.63
2019-02-25T09:58:11.083Z,3.30
2019-02-25T10:00:40.792Z,3.93
2019-02-25T10:03:10.523Z,4.03
2019-02-25T10:05:42.835Z,4.47
2019-02-25T10:08:15.526Z,4.67
2019-02-25T10:10:48.387Z,4.77
2019-02-25T10:13:19.764Z,4.50
2019-02-25T10:15:49.982Z,4.50
2019-02-25T10:18:20.586Z,4.70
2019-02-25T10:20:50.082Z,4.70
2019-02-25T10:23:24.088Z,4.43
2019-02-25T10:25:53.733Z,4.33
2019-02-25T10:28:23.346Z,3.83
2019-02-25T10:30:53.357Z,4.13
2019-02-25T10:33:25.828Z,4.37
2019-02-25T10:35:55.507Z,3.83
2019-02-25T10:38:25.173Z,3.90
2019-02-25T10:40:54.869Z,4.73
2019-02-25T10:43:28.075Z,4.43
2019-02-25T10:45:58.787Z,4.30
2019-02-25T10:48:29.891Z,4.73
2019-02-25T10:50:59.652Z,5.20
2019-02-25T10:53:29.431Z,5.20
2019-02-25T10:56:04.882Z,5.43
2019-02-25T10:58:35.978Z,4.73
2019-02-25T11:01:08.460Z,4.90
2019-02-25T11:03:37.449Z,5.27
2019-02-25T11:06:09.142Z,5.17
2019-02-25T11:08:41.486Z,4.90
2019-02-25T11:11:18.809Z,4.83
2019-02-25T11:13:49.199Z,5.00
2019-02-25T11:16:24.437Z,4.47
2019-02-25T11:18:57.013Z,4.60
2019-02-25T11:21:26.674Z,5.00
2019-02-25T11:23:59.223Z,5.30
2019-02-25T11:26:30.699Z,4.50
2019-02-25T11:29:00.261Z,3.87
2019-02-25T11:31:30.031Z,4.30
2019-02-25T11:34:00.649Z,4.40
2019-02-25T11:36:33.050Z,4.40
2019-02-25T11:39:06.916Z,4.40
2019-02-25T11:41:40.987Z,3.87
2019-02-25T11:44:10.536Z,4.50
2019-02-25T11:46:40.287Z,4.40
2019-02-25T11:49:11.517Z,3.77
2019-02-25T11:51:44.499Z,4.43
2019-02-25T11:54:15.337Z,5.03
2019-02-25T11:56:46.209Z,4.50
2019-02-25T11:59:15.707Z,5.07
2019-02-25T12:01:46.667Z,4.77
2019-02-25T12:04:19.442Z,4.47
2019-02-25T12:06:49.077Z,5.10
2019-02-25T12:09:18.760Z,5.40
2019-02-25T12:11:50.051Z,5.73
2019-02-25T12:14:19.744Z,5.80
2019-02-25T12:16:49.366Z,6.63
2019-02-25T12:19:19.090Z,5.83
2019-02-25T12:21:48.740Z,5.80
2019-02-25T12:24:20.140Z,6.40
2019-02-25T12:26:49.801Z,6.50
2019-02-25T12:29:19.351Z,6.17
2019-02-25T12:31:55.203Z,6.97
2019-02-25T12:34:24.759Z,7.13
2019-02-25T12:36:56.359Z,7.07
2019-02-25T12:39:27.132Z,6.13
2019-02-25T12:41:59.405Z,6.83
2019-02-25T12:44:29.070Z,6.00
2019-02-25T12:46:58.681Z,5.90
2019-02-25T12:49:29.770Z,5.67
2019-02-25T12:51:59.468Z,6.20
2019-02-25T12:54:29.119Z,5.80
2019-02-25T12:57:01.749Z,5.13
2019-02-25T12:59:33.904Z,6.13
2019-02-25T13:02:03.346Z,5.67
2019-02-25T13:04:34.915Z,5.40
2019-02-25T13:07:04.654Z,6.20
2019-02-25T13:09:36.261Z,5.33
2019-02-25T13:12:05.924Z,6.60
2019-02-25T13:14:37.658Z,6.00
2019-02-25T13:17:08.687Z,5.63
2019-02-25T13:19:38.438Z,5.50
2019-02-25T13:22:11.441Z,6.57
2019-02-25T13:24:42.571Z,6.53
2019-02-25T13:27:14.255Z,5.93
2019-02-25T13:29:43.987Z,6.40
2019-02-25T13:32:13.526Z,5.67
2019-02-25T13:34:43.248Z,6.50
2019-02-25T13:37:12.772Z,6.50
2019-02-25T13:39:43.462Z,6.67
2019-02-25T13:42:14.390Z,7.97
2019-02-25T13:44:43.939Z,6.97
2019-02-25T13:47:15.271Z,6.27
2019-02-25T13:49:46.043Z,6.40
2019-02-25T13:52:17.043Z,6.57
2019-02-25T13:54:47.916Z,6.47
2019-02-25T13:57:17.547Z,6.60
2019-02-25T13:59:47.112Z,7.00
2019-02-25T14:02:16.817Z,7.13
2019-02-25T14:04:48.185Z,7.17
2019-02-25T14:07:18.193Z,6.37
2019-02-25T14:09:47.779Z,6.30
2019-02-25T14:12:17.455Z,7.10
2019-02-25T14:14:47.171Z,8.23
2019-02-25T14:17:17.095Z,4.90
2019-02-25T14:19:46.685Z,4.93
2019-02-25T14:22:19.569Z,5.00
2019-02-25T14:24:49.366Z,5.30
2019-02-25T14:27:18.925Z,5.80
2019-02-25T14:29:48.947Z,5.70
2019-02-25T14:32:20.409Z,6.17
2019-02-25T14:34:50.403Z,6.07
2019-02-25T14:37:26.044Z,11.87
2019-02-25T14:39:56.685Z,5.87
2019-02-25T14:42:28.905Z,5.93
2019-02-25T14:45:01.075Z,5.23
2019-02-25T14:47:35.102Z,5.87
2019-02-25T14:50:03.930Z,5.87
2019-02-25T14:52:35.702Z,6.00
2019-02-25T14:55:07.102Z,4.80
2019-02-25T14:57:38.078Z,5.10
2019-02-25T15:00:13.351Z,5.53
2019-02-25T15:02:50.246Z,4.83
2019-02-25T15:05:19.858Z,5.60
2019-02-25T15:07:51.157Z,4.63
2019-02-25T15:10:26.555Z,5.23
2019-02-25T15:12:56.472Z,5.57
2019-02-25T15:15:26.383Z,5.37
2019-02-25T15:17:55.955Z,5.90
2019-02-25T15:20:26.783Z,6.33
2019-02-25T15:23:03.464Z,6.47
2019-02-25T15:25:40.265Z,5.57
2019-02-25T15:28:11.921Z,5.80
2019-02-25T15:30:43.207Z,8.07
2019-02-25T15:33:15.987Z,11.97
2019-02-25T15:35:45.774Z,6.77
2019-02-25T15:38:22.697Z,5.93
2019-02-25T15:40:49.980Z,5.77
2019-02-25T15:43:22.900Z,6.20
2019-02-25T15:45:52.297Z,6.90
2019-02-25T15:48:22.401Z,6.30
2019-02-25T15:50:55.487Z,6.57
2019-02-25T15:53:28.461Z,7.10
2019-02-25T15:56:03.691Z,8.20
2019-02-25T15:58:33.380Z,7.30
2019-02-25T16:01:02.993Z,6.00
2019-02-25T16:03:35.143Z,6.53
2019-02-25T16:06:08.367Z,6.40
2019-02-25T16:08:49.832Z,10.70
2019-02-25T16:11:18.808Z,16.87
2019-02-25T16:13:49.140Z,9.93
2019-02-25T16:16:20.475Z,7.73
2019-02-25T16:18:53.519Z,6.53
2019-02-25T16:21:26.663Z,5.93
2019-02-25T16:23:59.295Z,6.03
2019-02-25T16:26:36.049Z,6.80
2019-02-25T16:29:04.635Z,11.77
2019-02-25T16:31:35.240Z,11.33
2019-02-25T16:34:04.729Z,10.40
2019-02-25T16:36:34.297Z,10.83
2019-02-25T16:39:07.241Z,11.00
2019-02-25T16:41:38.410Z,11.80
2019-02-25T16:44:09.119Z,12.37
2019-02-25T16:46:43.537Z,11.40
2019-02-25T16:49:12.942Z,12.03
2019-02-25T16:51:42.770Z,13.93
2019-02-25T16:54:13.581Z,16.67
2019-02-25T16:56:44.236Z,16.13
2019-02-25T16:59:15.713Z,14.93
2019-02-25T17:01:45.640Z,13.80
2019-02-25T17:04:16.843Z,14.73
2019-02-25T17:06:49.030Z,16.00
2019-02-25T17:09:23.667Z,18.57
2019-02-25T17:11:53.378Z,21.07
2019-02-25T17:14:25.616Z,24.90
2019-02-25T17:16:57.365Z,22.60
2019-02-25T17:19:26.821Z,29.93
2019-02-25T17:21:56.513Z,51.17
2019-02-25T17:24:30.344Z,51.33
2019-02-25T17:27:01.933Z,50.13
2019-02-25T17:29:33.570Z,51.00
2019-02-25T17:32:03.618Z,42.70
2019-02-25T17:34:34.486Z,44.77
2019-02-25T17:37:05.947Z,47.17
2019-02-25T17:39:37.637Z,48.77
2019-02-25T17:42:16.021Z,54.10
2019-02-25T17:44:46.263Z,45.93
2019-02-25T17:47:24.060Z,49.43
2019-02-25T17:49:47.206Z,55.60
2019-02-25T17:52:18.514Z,57.10
2019-02-25T17:54:51.696Z,49.93
2019-02-25T17:57:21.605Z,46.77
2019-02-25T17:59:54.885Z,47.93
2019-02-25T18:02:22.764Z,45.83
2019-02-25T18:04:53.293Z,42.47
2019-02-25T18:07:23.484Z,36.93
2019-02-25T18:09:54.582Z,35.43
2019-02-25T18:12:25.718Z,33.00
2019-02-25T18:14:56.613Z,30.53
2019-02-25T18:17:26.668Z,31.20
2019-02-25T18:19:56.858Z,23.67
2019-02-25T18:22:26.571Z,24.70
2019-02-25T18:24:56.161Z,25.43
2019-02-25T18:27:28.792Z,23.13
2019-02-25T18:29:59.315Z,23.53
2019-02-25T18:32:30.569Z,24.13
2019-02-25T18:35:02.049Z,25.27
2019-02-25T18:37:35.281Z,29.33
2019-02-25T18:40:05.274Z,29.00
2019-02-25T18:42:36.562Z,25.17
2019-02-25T18:45:08.695Z,24.03
2019-02-25T18:47:39.303Z,21.53
2019-02-25T18:50:17.418Z,20.13
2019-02-25T18:52:44.088Z,16.67
2019-02-25T18:55:15.393Z,16.73
2019-02-25T18:57:46.122Z,17.17
2019-02-25T19:00:24.299Z,16.63
2019-02-25T19:02:56.183Z,15.77
2019-02-25T19:05:29.766Z,25.63
2019-02-25T19:08:00.836Z,25.07
2019-02-25T19:10:30.887Z,28.80
2019-02-25T19:13:01.154Z,24.77
2019-02-25T19:15:31.054Z,23.10
2019-02-25T19:18:03.574Z,23.03
2019-02-25T19:20:34.793Z,23.20
2019-02-25T19:23:09.465Z,23.83
2019-02-25T19:25:37.704Z,25.77
2019-02-25T19:28:07.730Z,23.53
2019-02-25T19:30:37.420Z,24.63
2019-02-25T19:33:11.352Z,29.47
2019-02-25T19:35:40.967Z,34.43
2019-02-25T19:38:12.944Z,44.90
2019-02-25T19:40:43.209Z,49.83
2019-02-25T19:43:14.104Z,50.43
2019-02-25T19:45:45.455Z,44.67
2019-02-25T19:48:16.442Z,42.73
2019-02-25T19:50:51.000Z,34.10
2019-02-25T19:53:20.019Z,32.77
2019-02-25T19:55:51.083Z,30.63
2019-02-25T19:58:20.375Z,31.13
2019-02-25T20:00:58.420Z,24.17
2019-02-25T20:03:25.320Z,22.03
2019-02-25T20:05:56.314Z,19.50
2019-02-25T20:08:26.181Z,20.23
2019-02-25T20:10:55.915Z,20.30
2019-02-25T20:13:25.699Z,19.97
2019-02-25T20:15:57.523Z,18.93
2019-02-25T20:18:26.886Z,18.13
2019-02-25T20:20:57.773Z,17.40
2019-02-25T20:23:28.824Z,18.70
2019-02-25T20:25:59.546Z,18.23
2019-02-25T20:28:29.159Z,19.27
2019-02-25T20:31:01.763Z,21.93
2019-02-25T20:33:32.951Z,21.87
2019-02-25T20:36:03.270Z,22.90
2019-02-25T20:38:34.813Z,24.80
2019-02-25T20:41:07.018Z,32.40
2019-02-25T20:43:36.832Z,34.17
2019-02-25T20:46:08.577Z,30.33
2019-02-25T20:48:38.159Z,26.87
2019-02-25T20:51:09.473Z,22.80
2019-02-25T20:53:39.146Z,23.03
2019-02-25T20:56:08.938Z,20.93
2019-02-25T20:58:43.050Z,21.93
2019-02-25T21:01:16.095Z,22.40
2019-02-25T21:03:46.023Z,21.87
2019-02-25T21:06:19.528Z,24.07
2019-02-25T21:08:48.333Z,27.07
2019-02-25T21:11:19.443Z,28.67
2019-02-25T21:13:51.200Z,30.57
2019-02-25T21:16:24.042Z,27.03
2019-02-25T21:18:56.094Z,21.20
2019-02-25T21:21:28.528Z,21.80
2019-02-25T21:24:01.310Z,19.63
2019-02-25T21:26:31.536Z,15.10
2019-02-25T21:29:06.878Z,12.33
2019-02-25T21:31:36.569Z,11.03
2019-02-25T21:34:06.770Z,9.40
2019-02-25T21:36:38.228Z,8.00
2019-02-25T21:39:12.279Z,7.27
2019-02-25T21:41:43.508Z,7.60
2019-02-25T21:44:16.699Z,7.30
2019-02-25T21:46:49.579Z,7.90
2019-02-25T21:49:16.532Z,6.70
2019-02-25T21:51:48.350Z,7.57
2019-02-25T21:54:18.111Z,7.27
2019-02-25T21:56:47.849Z,7.70
2019-02-25T21:59:17.706Z,7.10
2019-02-25T22:01:47.382Z,7.53
2019-02-25T22:04:18.066Z,6.70
2019-02-25T22:06:50.964Z,7.20
2019-02-25T22:09:35.276Z,7.50
2019-02-25T22:11:51.222Z,8.93
2019-02-25T22:14:21.786Z,7.40
2019-02-25T22:16:54.283Z,8.23
2019-02-25T22:19:23.641Z,7.77
2019-02-25T22:21:55.644Z,7.60
2019-02-25T22:24:27.159Z,7.80
2019-02-25T22:26:57.954Z,7.87
2019-02-25T22:29:27.271Z,8.17
2019-02-25T22:31:59.576Z,8.33
2019-02-25T22:34:28.549Z,7.87
2019-02-25T22:36:58.249Z,7.60
2019-02-25T22:39:30.224Z,8.47
2019-02-25T22:41:59.385Z,8.20
2019-02-25T22:44:30.821Z,8.03
2019-02-25T22:47:05.151Z,7.83
2019-02-25T22:49:36.887Z,7.57
2019-02-25T22:52:07.479Z,8.73
2019-02-25T22:54:39.145Z,8.10
2019-02-25T22:57:12.269Z,8.27
2019-02-25T22:59:44.365Z,8.17
2019-02-25T23:02:16.429Z,8.97
2019-02-25T23:04:49.164Z,7.30
2019-02-25T23:07:20.543Z,8.50
2019-02-25T23:09:52.228Z,7.53
2019-02-25T23:12:25.009Z,8.80
2019-02-25T23:14:56.132Z,8.63
2019-02-25T23:17:26.924Z,7.80
2019-02-25T23:19:57.967Z,7.47
2019-02-25T23:22:30.092Z,8.70
2019-02-25T23:25:07.041Z,7.80
2019-02-25T23:27:37.096Z,7.93
2019-02-25T23:30:08.634Z,7.90
2019-02-25T23:32:40.528Z,7.53
2019-02-25T23:35:13.606Z,8.50
2019-02-25T23:37:49.042Z,7.80
2019-02-25T23:40:17.954Z,7.63
2019-02-25T23:42:49.114Z,8.33
2019-02-25T23:45:22.492Z,7.27
2019-02-25T23:47:55.303Z,7.97
2019-02-25T23:50:21.741Z,7.73
2019-02-25T23:52:54.416Z,7.17
2019-02-25T23:55:29.664Z,7.13
2019-02-25T23:57:59.379Z,7.77
